sensor_id;sensor_type;location;lat;lon;timestamp;temperature;humidity
37460;DHT22;23318;50.966;5.284;2022-11-15T00:00:26;11.70;99.90
37460;DHT22;23318;50.966;5.284;2022-11-15T00:02:55;11.80;99.90
37460;DHT22;23318;50.966;5.284;2022-11-15T00:05:21;11.90;99.90
37460;DHT22;23318;50.966;5.284;2022-11-15T00:07:47;12.00;99.90
37460;DHT22;23318;50.966;5.284;2022-11-15T00:10:13;12.00;99.90
37460;DHT22;23318;50.966;5.284;2022-11-15T00:12:38;11.90;99.90
37460;DHT22;23318;50.966;5.284;2022-11-15T00:15:04;11.90;99.90
37460;DHT22;23318;50.966;5.284;2022-11-15T00:17:30;11.90;99.90
37460;DHT22;23318;50.966;5.284;2022-11-15T00:19:56;12.00;99.90
37460;DHT22;23318;50.966;5.284;2022-11-15T00:22:21;12.00;99.90
37460;DHT22;23318;50.966;5.284;2022-11-15T00:24:47;11.90;99.90
37460;DHT22;23318;50.966;5.284;2022-11-15T00:27:13;11.90;99.90
37460;DHT22;23318;50.966;5.284;2022-11-15T00:29:38;12.00;99.90
37460;DHT22;23318;50.966;5.284;2022-11-15T00:32:09;11.90;99.90
37460;DHT22;23318;50.966;5.284;2022-11-15T00:34:34;11.90;99.90
37460;DHT22;23318;50.966;5.284;2022-11-15T00:37:00;12.00;99.90
37460;DHT22;23318;50.966;5.284;2022-11-15T00:39:26;12.20;99.90
37460;DHT22;23318;50.966;5.284;2022-11-15T00:41:51;12.00;99.90
37460;DHT22;23318;50.966;5.284;2022-11-15T00:44:17;12.10;99.90
37460;DHT22;23318;50.966;5.284;2022-11-15T00:46:43;12.00;99.90
37460;DHT22;23318;50.966;5.284;2022-11-15T00:49:08;12.20;99.90
37460;DHT22;23318;50.966;5.284;2022-11-15T00:51:34;12.20;99.90
37460;DHT22;23318;50.966;5.284;2022-11-15T00:54:00;12.00;99.90
37460;DHT22;23318;50.966;5.284;2022-11-15T00:56:25;12.10;99.90
37460;DHT22;23318;50.966;5.284;2022-11-15T00:58:52;12.20;99.90
37460;DHT22;23318;50.966;5.284;2022-11-15T01:01:18;12.40;99.90
37460;DHT22;23318;50.966;5.284;2022-11-15T01:03:43;12.30;99.90
37460;DHT22;23318;50.966;5.284;2022-11-15T01:06:09;12.30;99.90
37460;DHT22;23318;50.966;5.284;2022-11-15T01:08:35;12.20;99.90
37460;DHT22;23318;50.966;5.284;2022-11-15T01:11:07;12.20;99.90
37460;DHT22;23318;50.966;5.284;2022-11-15T01:13:34;12.40;99.90
37460;DHT22;23318;50.966;5.284;2022-11-15T01:16:15;12.40;99.90
37460;DHT22;23318;50.966;5.284;2022-11-15T01:18:43;12.50;99.90
37460;DHT22;23318;50.966;5.284;2022-11-15T01:21:12;12.40;99.90
37460;DHT22;23318;50.966;5.284;2022-11-15T01:23:38;12.20;99.90
37460;DHT22;23318;50.966;5.284;2022-11-15T01:26:06;12.20;99.90
37460;DHT22;23318;50.966;5.284;2022-11-15T01:28:34;12.20;99.90
37460;DHT22;23318;50.966;5.284;2022-11-15T01:31:00;12.10;99.90
37460;DHT22;23318;50.966;5.284;2022-11-15T01:33:29;12.20;99.90
37460;DHT22;23318;50.966;5.284;2022-11-15T01:35:55;12.30;99.90
37460;DHT22;23318;50.966;5.284;2022-11-15T01:38:22;12.40;99.90
37460;DHT22;23318;50.966;5.284;2022-11-15T01:40:48;12.30;99.90
37460;DHT22;23318;50.966;5.284;2022-11-15T01:43:32;12.20;99.90
37460;DHT22;23318;50.966;5.284;2022-11-15T01:48:48;12.40;99.90
37460;DHT22;23318;50.966;5.284;2022-11-15T01:51:18;12.40;99.90
37460;DHT22;23318;50.966;5.284;2022-11-15T01:53:48;12.40;99.90
37460;DHT22;23318;50.966;5.284;2022-11-15T01:56:18;12.20;99.90
37460;DHT22;23318;50.966;5.284;2022-11-15T01:58:45;12.50;99.90
37460;DHT22;23318;50.966;5.284;2022-11-15T02:01:12;12.60;99.90
37460;DHT22;23318;50.966;5.284;2022-11-15T02:03:52;12.70;99.90
37460;DHT22;23318;50.966;5.284;2022-11-15T02:06:19;12.80;99.90
37460;DHT22;23318;50.966;5.284;2022-11-15T02:08:45;12.60;99.90
37460;DHT22;23318;50.966;5.284;2022-11-15T02:11:11;12.50;99.90
37460;DHT22;23318;50.966;5.284;2022-11-15T02:13:37;12.50;99.90
37460;DHT22;23318;50.966;5.284;2022-11-15T02:16:18;12.40;99.90
37460;DHT22;23318;50.966;5.284;2022-11-15T02:19:02;12.30;99.90
37460;DHT22;23318;50.966;5.284;2022-11-15T02:21:46;12.60;99.90
37460;DHT22;23318;50.966;5.284;2022-11-15T02:30:24;12.70;99.90
37460;DHT22;23318;50.966;5.284;2022-11-15T02:35:53;12.80;99.90
37460;DHT22;23318;50.966;5.284;2022-11-15T02:38:46;12.80;99.90
37460;DHT22;23318;50.966;5.284;2022-11-15T02:41:23;12.80;99.90
37460;DHT22;23318;50.966;5.284;2022-11-15T02:43:59;12.60;99.90
37460;DHT22;23318;50.966;5.284;2022-11-15T02:49:22;12.90;99.90
37460;DHT22;23318;50.966;5.284;2022-11-15T02:51:49;13.00;99.90
37460;DHT22;23318;50.966;5.284;2022-11-15T02:54:29;13.00;99.90
37460;DHT22;23318;50.966;5.284;2022-11-15T02:56:59;13.20;99.90
37460;DHT22;23318;50.966;5.284;2022-11-15T03:02:42;13.10;99.90
37460;DHT22;23318;50.966;5.284;2022-11-15T03:18:37;12.60;99.90
37460;DHT22;23318;50.966;5.284;2022-11-15T03:21:06;12.60;99.90
37460;DHT22;23318;50.966;5.284;2022-11-15T03:23:33;12.60;99.90
37460;DHT22;23318;50.966;5.284;2022-11-15T03:26:00;12.90;99.90
37460;DHT22;23318;50.966;5.284;2022-11-15T03:28:34;13.10;99.90
37460;DHT22;23318;50.966;5.284;2022-11-15T03:31:04;13.20;99.90
37460;DHT22;23318;50.966;5.284;2022-11-15T03:33:54;13.20;99.90
37460;DHT22;23318;50.966;5.284;2022-11-15T03:36:22;13.30;99.90
37460;DHT22;23318;50.966;5.284;2022-11-15T03:38:56;13.30;99.90
37460;DHT22;23318;50.966;5.284;2022-11-15T03:41:35;13.20;99.90
37460;DHT22;23318;50.966;5.284;2022-11-15T03:47:00;13.00;99.90
37460;DHT22;23318;50.966;5.284;2022-11-15T03:49:35;13.30;99.90
37460;DHT22;23318;50.966;5.284;2022-11-15T03:52:02;13.30;99.90
37460;DHT22;23318;50.966;5.284;2022-11-15T03:54:29;12.90;99.90
37460;DHT22;23318;50.966;5.284;2022-11-15T03:56:55;12.80;99.90
37460;DHT22;23318;50.966;5.284;2022-11-15T03:59:20;12.90;99.90
37460;DHT22;23318;50.966;5.284;2022-11-15T04:01:46;13.10;99.90
37460;DHT22;23318;50.966;5.284;2022-11-15T04:04:12;13.10;99.90
37460;DHT22;23318;50.966;5.284;2022-11-15T04:06:37;13.00;99.90
37460;DHT22;23318;50.966;5.284;2022-11-15T04:09:03;13.20;99.90
37460;DHT22;23318;50.966;5.284;2022-11-15T04:11:29;13.40;99.90
37460;DHT22;23318;50.966;5.284;2022-11-15T04:13:54;13.50;99.90
37460;DHT22;23318;50.966;5.284;2022-11-15T04:16:20;13.40;99.90
37460;DHT22;23318;50.966;5.284;2022-11-15T04:18:46;13.40;99.90
37460;DHT22;23318;50.966;5.284;2022-11-15T04:21:31;13.40;99.90
37460;DHT22;23318;50.966;5.284;2022-11-15T04:24:16;13.40;99.90
37460;DHT22;23318;50.966;5.284;2022-11-15T04:26:41;13.20;99.90
37460;DHT22;23318;50.966;5.284;2022-11-15T04:29:07;13.30;99.90
37460;DHT22;23318;50.966;5.284;2022-11-15T04:31:51;13.30;99.90
37460;DHT22;23318;50.966;5.284;2022-11-15T04:34:17;13.40;99.90
37460;DHT22;23318;50.966;5.284;2022-11-15T04:36:43;13.40;99.90
37460;DHT22;23318;50.966;5.284;2022-11-15T04:39:27;13.40;99.90
37460;DHT22;23318;50.966;5.284;2022-11-15T04:41:52;13.60;99.90
37460;DHT22;23318;50.966;5.284;2022-11-15T04:44:18;13.60;99.90
37460;DHT22;23318;50.966;5.284;2022-11-15T04:46:44;13.60;99.90
37460;DHT22;23318;50.966;5.284;2022-11-15T04:49:09;13.40;99.90
37460;DHT22;23318;50.966;5.284;2022-11-15T04:51:35;13.30;99.90
37460;DHT22;23318;50.966;5.284;2022-11-15T04:54:00;13.20;99.90
37460;DHT22;23318;50.966;5.284;2022-11-15T04:56:26;12.40;99.90
37460;DHT22;23318;50.966;5.284;2022-11-15T04:58:52;12.00;99.90
37460;DHT22;23318;50.966;5.284;2022-11-15T05:01:17;11.70;99.90
37460;DHT22;23318;50.966;5.284;2022-11-15T05:03:44;11.40;99.90
37460;DHT22;23318;50.966;5.284;2022-11-15T05:06:29;11.20;99.90
37460;DHT22;23318;50.966;5.284;2022-11-15T05:08:55;11.10;99.90
37460;DHT22;23318;50.966;5.284;2022-11-15T05:11:21;11.00;99.90
37460;DHT22;23318;50.966;5.284;2022-11-15T05:13:47;10.90;99.90
37460;DHT22;23318;50.966;5.284;2022-11-15T05:16:12;10.90;99.90
37460;DHT22;23318;50.966;5.284;2022-11-15T05:18:38;10.80;99.90
37460;DHT22;23318;50.966;5.284;2022-11-15T05:21:12;10.80;99.90
37460;DHT22;23318;50.966;5.284;2022-11-15T05:23:38;10.70;99.90
37460;DHT22;23318;50.966;5.284;2022-11-15T05:26:05;10.70;99.90
37460;DHT22;23318;50.966;5.284;2022-11-15T05:28:31;10.80;99.90
37460;DHT22;23318;50.966;5.284;2022-11-15T05:31:08;10.70;99.90
37460;DHT22;23318;50.966;5.284;2022-11-15T05:33:35;10.80;99.90
37460;DHT22;23318;50.966;5.284;2022-11-15T05:38:30;10.70;99.90
37460;DHT22;23318;50.966;5.284;2022-11-15T05:40:56;10.80;99.90
37460;DHT22;23318;50.966;5.284;2022-11-15T05:43:23;11.00;99.90
37460;DHT22;23318;50.966;5.284;2022-11-15T05:45:49;11.20;99.90
37460;DHT22;23318;50.966;5.284;2022-11-15T05:48:15;11.60;99.90
37460;DHT22;23318;50.966;5.284;2022-11-15T05:50:43;11.60;99.90
37460;DHT22;23318;50.966;5.284;2022-11-15T05:53:12;11.80;99.90
37460;DHT22;23318;50.966;5.284;2022-11-15T05:55:39;11.90;99.90
37460;DHT22;23318;50.966;5.284;2022-11-15T05:58:05;12.00;99.90
37460;DHT22;23318;50.966;5.284;2022-11-15T06:00:31;12.00;99.90
37460;DHT22;23318;50.966;5.284;2022-11-15T06:02:56;12.10;99.90
37460;DHT22;23318;50.966;5.284;2022-11-15T06:05:22;12.00;99.90
37460;DHT22;23318;50.966;5.284;2022-11-15T06:07:47;12.00;99.90
37460;DHT22;23318;50.966;5.284;2022-11-15T06:10:13;11.70;99.90
37460;DHT22;23318;50.966;5.284;2022-11-15T06:12:39;11.50;99.90
37460;DHT22;23318;50.966;5.284;2022-11-15T06:15:05;11.60;99.90
37460;DHT22;23318;50.966;5.284;2022-11-15T06:17:30;11.70;99.90
37460;DHT22;23318;50.966;5.284;2022-11-15T06:19:56;11.70;99.90
37460;DHT22;23318;50.966;5.284;2022-11-15T06:22:22;11.80;99.90
37460;DHT22;23318;50.966;5.284;2022-11-15T06:24:47;11.80;99.90
37460;DHT22;23318;50.966;5.284;2022-11-15T06:27:13;11.80;99.90
37460;DHT22;23318;50.966;5.284;2022-11-15T06:29:39;11.80;99.90
37460;DHT22;23318;50.966;5.284;2022-11-15T06:32:04;11.60;99.90
37460;DHT22;23318;50.966;5.284;2022-11-15T06:34:30;11.60;99.90
37460;DHT22;23318;50.966;5.284;2022-11-15T06:36:55;11.60;99.90
37460;DHT22;23318;50.966;5.284;2022-11-15T06:39:21;11.70;99.90
37460;DHT22;23318;50.966;5.284;2022-11-15T06:41:47;11.50;99.90
37460;DHT22;23318;50.966;5.284;2022-11-15T06:44:12;11.50;99.90
37460;DHT22;23318;50.966;5.284;2022-11-15T06:46:38;11.40;99.90
37460;DHT22;23318;50.966;5.284;2022-11-15T06:49:03;11.40;99.90
37460;DHT22;23318;50.966;5.284;2022-11-15T06:51:29;11.50;99.90
37460;DHT22;23318;50.966;5.284;2022-11-15T06:53:55;11.30;99.90
37460;DHT22;23318;50.966;5.284;2022-11-15T06:56:20;11.40;99.90
37460;DHT22;23318;50.966;5.284;2022-11-15T06:58:46;11.30;99.90
37460;DHT22;23318;50.966;5.284;2022-11-15T07:01:12;11.30;99.90
37460;DHT22;23318;50.966;5.284;2022-11-15T07:03:39;11.40;99.90
37460;DHT22;23318;50.966;5.284;2022-11-15T07:06:06;11.50;99.90
37460;DHT22;23318;50.966;5.284;2022-11-15T07:08:32;11.50;99.90
37460;DHT22;23318;50.966;5.284;2022-11-15T07:10:59;11.50;99.90
37460;DHT22;23318;50.966;5.284;2022-11-15T07:13:27;11.40;99.90
37460;DHT22;23318;50.966;5.284;2022-11-15T07:15:54;11.40;99.90
37460;DHT22;23318;50.966;5.284;2022-11-15T07:18:19;11.20;99.90
37460;DHT22;23318;50.966;5.284;2022-11-15T07:20:45;11.20;99.90
37460;DHT22;23318;50.966;5.284;2022-11-15T07:23:11;11.10;99.90
37460;DHT22;23318;50.966;5.284;2022-11-15T07:25:36;11.00;99.90
37460;DHT22;23318;50.966;5.284;2022-11-15T07:28:02;10.80;99.90
37460;DHT22;23318;50.966;5.284;2022-11-15T07:30:28;10.80;99.90
37460;DHT22;23318;50.966;5.284;2022-11-15T07:32:59;10.70;99.90
37460;DHT22;23318;50.966;5.284;2022-11-15T07:35:26;10.50;99.90
37460;DHT22;23318;50.966;5.284;2022-11-15T07:38:00;10.70;99.90
37460;DHT22;23318;50.966;5.284;2022-11-15T07:40:27;10.70;99.90
37460;DHT22;23318;50.966;5.284;2022-11-15T07:43:02;10.80;99.90
37460;DHT22;23318;50.966;5.284;2022-11-15T07:45:28;10.80;99.90
37460;DHT22;23318;50.966;5.284;2022-11-15T07:47:54;10.80;99.90
37460;DHT22;23318;50.966;5.284;2022-11-15T07:50:24;10.60;99.90
37460;DHT22;23318;50.966;5.284;2022-11-15T07:52:54;10.60;99.90
37460;DHT22;23318;50.966;5.284;2022-11-15T07:55:21;10.80;99.90
37460;DHT22;23318;50.966;5.284;2022-11-15T07:57:46;10.80;99.90
37460;DHT22;23318;50.966;5.284;2022-11-15T08:00:13;10.70;99.90
37460;DHT22;23318;50.966;5.284;2022-11-15T08:02:38;10.80;99.90
37460;DHT22;23318;50.966;5.284;2022-11-15T08:05:04;10.70;99.90
37460;DHT22;23318;50.966;5.284;2022-11-15T08:07:31;10.60;99.90
37460;DHT22;23318;50.966;5.284;2022-11-15T08:09:57;10.70;99.90
37460;DHT22;23318;50.966;5.284;2022-11-15T08:12:23;10.70;99.90
37460;DHT22;23318;50.966;5.284;2022-11-15T08:14:49;10.80;99.90
37460;DHT22;23318;50.966;5.284;2022-11-15T08:17:14;10.90;99.90
37460;DHT22;23318;50.966;5.284;2022-11-15T08:19:40;10.80;99.90
37460;DHT22;23318;50.966;5.284;2022-11-15T08:22:06;10.90;99.90
37460;DHT22;23318;50.966;5.284;2022-11-15T08:24:32;10.80;99.90
37460;DHT22;23318;50.966;5.284;2022-11-15T08:26:57;11.00;99.90
37460;DHT22;23318;50.966;5.284;2022-11-15T08:29:23;11.00;99.90
37460;DHT22;23318;50.966;5.284;2022-11-15T08:31:48;10.90;99.90
37460;DHT22;23318;50.966;5.284;2022-11-15T08:34:14;10.80;99.90
37460;DHT22;23318;50.966;5.284;2022-11-15T08:36:40;10.70;99.90
37460;DHT22;23318;50.966;5.284;2022-11-15T08:39:05;10.80;99.90
37460;DHT22;23318;50.966;5.284;2022-11-15T08:41:34;10.50;99.90
37460;DHT22;23318;50.966;5.284;2022-11-15T08:44:01;10.70;99.90
37460;DHT22;23318;50.966;5.284;2022-11-15T08:46:27;10.80;99.90
37460;DHT22;23318;50.966;5.284;2022-11-15T08:48:53;10.80;99.90
37460;DHT22;23318;50.966;5.284;2022-11-15T08:51:19;10.70;99.90
37460;DHT22;23318;50.966;5.284;2022-11-15T08:53:44;10.60;99.90
37460;DHT22;23318;50.966;5.284;2022-11-15T08:56:12;10.90;99.90
37460;DHT22;23318;50.966;5.284;2022-11-15T08:58:38;10.90;99.90
37460;DHT22;23318;50.966;5.284;2022-11-15T09:01:05;10.80;99.90
37460;DHT22;23318;50.966;5.284;2022-11-15T09:03:31;10.80;99.90
37460;DHT22;23318;50.966;5.284;2022-11-15T09:05:59;10.70;99.90
37460;DHT22;23318;50.966;5.284;2022-11-15T09:08:34;10.70;99.90
37460;DHT22;23318;50.966;5.284;2022-11-15T09:11:03;10.60;99.90
37460;DHT22;23318;50.966;5.284;2022-11-15T09:13:29;10.80;99.90
37460;DHT22;23318;50.966;5.284;2022-11-15T09:15:59;10.80;99.90
37460;DHT22;23318;50.966;5.284;2022-11-15T09:18:25;11.00;99.90
37460;DHT22;23318;50.966;5.284;2022-11-15T09:20:54;11.00;99.90
37460;DHT22;23318;50.966;5.284;2022-11-15T09:23:20;11.30;99.90
37460;DHT22;23318;50.966;5.284;2022-11-15T09:25:45;11.30;99.90
37460;DHT22;23318;50.966;5.284;2022-11-15T09:28:11;11.40;99.90
37460;DHT22;23318;50.966;5.284;2022-11-15T09:30:36;11.40;99.90
37460;DHT22;23318;50.966;5.284;2022-11-15T09:33:10;11.40;99.90
37460;DHT22;23318;50.966;5.284;2022-11-15T09:35:36;11.70;99.90
37460;DHT22;23318;50.966;5.284;2022-11-15T09:38:02;11.80;99.90
37460;DHT22;23318;50.966;5.284;2022-11-15T09:40:30;11.70;99.90
37460;DHT22;23318;50.966;5.284;2022-11-15T09:45:56;11.80;99.90
37460;DHT22;23318;50.966;5.284;2022-11-15T09:50:54;12.20;99.90
37460;DHT22;23318;50.966;5.284;2022-11-15T09:53:49;12.40;99.90
37460;DHT22;23318;50.966;5.284;2022-11-15T09:56:21;12.80;99.90
37460;DHT22;23318;50.966;5.284;2022-11-15T10:04:37;13.80;99.90
37460;DHT22;23318;50.966;5.284;2022-11-15T10:07:15;14.50;99.90
37460;DHT22;23318;50.966;5.284;2022-11-15T10:09:52;14.40;99.90
37460;DHT22;23318;50.966;5.284;2022-11-15T10:12:18;14.60;99.90
37460;DHT22;23318;50.966;5.284;2022-11-15T10:14:45;14.80;99.90
37460;DHT22;23318;50.966;5.284;2022-11-15T10:22:51;14.60;99.90
37460;DHT22;23318;50.966;5.284;2022-11-15T10:25:19;14.60;99.90
37460;DHT22;23318;50.966;5.284;2022-11-15T10:30:23;15.60;99.90
37460;DHT22;23318;50.966;5.284;2022-11-15T10:32:49;15.50;99.90
37460;DHT22;23318;50.966;5.284;2022-11-15T10:37:43;15.40;99.90
37460;DHT22;23318;50.966;5.284;2022-11-15T10:40:25;16.10;99.90
37460;DHT22;23318;50.966;5.284;2022-11-15T10:45:35;15.10;99.90
37460;DHT22;23318;50.966;5.284;2022-11-15T10:50:43;13.90;99.90
37460;DHT22;23318;50.966;5.284;2022-11-15T10:53:25;13.70;99.90
37460;DHT22;23318;50.966;5.284;2022-11-15T10:55:55;13.90;99.90
37460;DHT22;23318;50.966;5.284;2022-11-15T10:58:38;13.90;99.90
37460;DHT22;23318;50.966;5.284;2022-11-15T11:01:17;14.00;99.90
37460;DHT22;23318;50.966;5.284;2022-11-15T11:03:45;14.10;99.90
37460;DHT22;23318;50.966;5.284;2022-11-15T11:06:17;14.20;99.90
37460;DHT22;23318;50.966;5.284;2022-11-15T11:09:00;14.40;99.90
37460;DHT22;23318;50.966;5.284;2022-11-15T11:11:46;15.00;99.90
37460;DHT22;23318;50.966;5.284;2022-11-15T11:33:39;15.40;99.90
37460;DHT22;23318;50.966;5.284;2022-11-15T11:36:23;15.90;99.90
37460;DHT22;23318;50.966;5.284;2022-11-15T11:38:57;16.00;99.60
37460;DHT22;23318;50.966;5.284;2022-11-15T11:41:53;16.00;99.90
37460;DHT22;23318;50.966;5.284;2022-11-15T11:47:11;16.10;99.40
37460;DHT22;23318;50.966;5.284;2022-11-15T11:49:50;16.00;99.50
37460;DHT22;23318;50.966;5.284;2022-11-15T11:52:33;16.20;99.30
37460;DHT22;23318;50.966;5.284;2022-11-15T11:55:14;15.90;99.50
37460;DHT22;23318;50.966;5.284;2022-11-15T12:00:24;15.90;99.90
37460;DHT22;23318;50.966;5.284;2022-11-15T12:05:48;16.50;99.40
37460;DHT22;23318;50.966;5.284;2022-11-15T12:08:40;16.10;99.70
37460;DHT22;23318;50.966;5.284;2022-11-15T12:13:38;15.60;99.90
37460;DHT22;23318;50.966;5.284;2022-11-15T12:16:26;15.80;99.90
37460;DHT22;23318;50.966;5.284;2022-11-15T12:18:54;16.10;99.90
37460;DHT22;23318;50.966;5.284;2022-11-15T12:21:47;15.80;99.90
37460;DHT22;23318;50.966;5.284;2022-11-15T12:24:30;15.70;99.90
37460;DHT22;23318;50.966;5.284;2022-11-15T12:27:14;15.70;99.90
37460;DHT22;23318;50.966;5.284;2022-11-15T12:29:45;15.90;99.90
37460;DHT22;23318;50.966;5.284;2022-11-15T12:34:54;15.70;99.90
37460;DHT22;23318;50.966;5.284;2022-11-15T12:40:04;15.50;99.90
37460;DHT22;23318;50.966;5.284;2022-11-15T12:44:57;15.60;99.90
37460;DHT22;23318;50.966;5.284;2022-11-15T12:47:26;15.70;99.90
37460;DHT22;23318;50.966;5.284;2022-11-15T12:49:52;15.80;99.90
37460;DHT22;23318;50.966;5.284;2022-11-15T12:52:18;15.90;99.90
37460;DHT22;23318;50.966;5.284;2022-11-15T12:54:51;15.80;99.90
37460;DHT22;23318;50.966;5.284;2022-11-15T12:59:56;15.70;99.90
37460;DHT22;23318;50.966;5.284;2022-11-15T13:17:51;15.50;99.90
37460;DHT22;23318;50.966;5.284;2022-11-15T13:20:31;15.60;99.90
37460;DHT22;23318;50.966;5.284;2022-11-15T13:23:13;15.40;99.90
37460;DHT22;23318;50.966;5.284;2022-11-15T13:30:53;15.00;99.90
37460;DHT22;23318;50.966;5.284;2022-11-15T13:35:55;15.30;99.90
37460;DHT22;23318;50.966;5.284;2022-11-15T13:40:50;15.20;99.90
37460;DHT22;23318;50.966;5.284;2022-11-15T13:46:16;15.20;99.90
37460;DHT22;23318;50.966;5.284;2022-11-15T13:48:43;15.00;99.90
37460;DHT22;23318;50.966;5.284;2022-11-15T13:51:34;15.20;99.90
37460;DHT22;23318;50.966;5.284;2022-11-15T13:56:35;15.50;99.90
37460;DHT22;23318;50.966;5.284;2022-11-15T13:59:14;15.60;99.90
37460;DHT22;23318;50.966;5.284;2022-11-15T14:01:41;15.60;99.90
37460;DHT22;23318;50.966;5.284;2022-11-15T14:04:12;15.30;99.90
37460;DHT22;23318;50.966;5.284;2022-11-15T14:06:45;15.50;99.90
37460;DHT22;23318;50.966;5.284;2022-11-15T14:11:48;15.10;99.90
37460;DHT22;23318;50.966;5.284;2022-11-15T14:14:14;15.10;99.90
37460;DHT22;23318;50.966;5.284;2022-11-15T14:16:45;15.10;99.90
37460;DHT22;23318;50.966;5.284;2022-11-15T14:22:15;15.20;99.90
37460;DHT22;23318;50.966;5.284;2022-11-15T14:24:44;15.30;99.90
37460;DHT22;23318;50.966;5.284;2022-11-15T14:27:20;15.20;99.90
37460;DHT22;23318;50.966;5.284;2022-11-15T14:29:47;15.00;99.90
37460;DHT22;23318;50.966;5.284;2022-11-15T14:34:47;15.30;99.90
37460;DHT22;23318;50.966;5.284;2022-11-15T14:39:44;15.20;99.90
37460;DHT22;23318;50.966;5.284;2022-11-15T14:42:10;15.00;99.90
37460;DHT22;23318;50.966;5.284;2022-11-15T14:44:35;14.90;99.90
37460;DHT22;23318;50.966;5.284;2022-11-15T14:47:01;15.00;99.90
37460;DHT22;23318;50.966;5.284;2022-11-15T14:49:27;15.00;99.90
37460;DHT22;23318;50.966;5.284;2022-11-15T14:51:52;14.90;99.90
37460;DHT22;23318;50.966;5.284;2022-11-15T14:54:18;14.90;99.90
37460;DHT22;23318;50.966;5.284;2022-11-15T14:56:43;14.80;99.90
37460;DHT22;23318;50.966;5.284;2022-11-15T14:59:09;14.80;99.90
37460;DHT22;23318;50.966;5.284;2022-11-15T15:01:35;14.80;99.90
37460;DHT22;23318;50.966;5.284;2022-11-15T15:04:00;14.70;99.90
37460;DHT22;23318;50.966;5.284;2022-11-15T15:06:26;14.70;99.90
37460;DHT22;23318;50.966;5.284;2022-11-15T15:08:52;14.70;99.90
37460;DHT22;23318;50.966;5.284;2022-11-15T15:11:24;14.70;99.90
37460;DHT22;23318;50.966;5.284;2022-11-15T15:13:51;14.90;99.90
37460;DHT22;23318;50.966;5.284;2022-11-15T15:16:18;14.80;99.90
37460;DHT22;23318;50.966;5.284;2022-11-15T15:18:43;14.70;99.90
37460;DHT22;23318;50.966;5.284;2022-11-15T15:21:26;14.70;99.90
37460;DHT22;23318;50.966;5.284;2022-11-15T15:23:56;14.70;99.90
37460;DHT22;23318;50.966;5.284;2022-11-15T15:26:23;14.50;99.90
37460;DHT22;23318;50.966;5.284;2022-11-15T15:28:49;14.40;99.90
37460;DHT22;23318;50.966;5.284;2022-11-15T15:31:16;14.40;99.90
37460;DHT22;23318;50.966;5.284;2022-11-15T15:33:42;14.30;99.90
37460;DHT22;23318;50.966;5.284;2022-11-15T15:36:13;14.20;99.90
37460;DHT22;23318;50.966;5.284;2022-11-15T15:38:39;14.20;99.90
37460;DHT22;23318;50.966;5.284;2022-11-15T15:41:14;14.10;99.90
37460;DHT22;23318;50.966;5.284;2022-11-15T15:43:40;14.10;99.90
37460;DHT22;23318;50.966;5.284;2022-11-15T15:46:15;14.00;99.90
37460;DHT22;23318;50.966;5.284;2022-11-15T15:48:41;13.90;99.90
37460;DHT22;23318;50.966;5.284;2022-11-15T15:51:06;13.80;99.90
37460;DHT22;23318;50.966;5.284;2022-11-15T15:53:32;13.60;99.90
37460;DHT22;23318;50.966;5.284;2022-11-15T15:55:58;13.70;99.90
37460;DHT22;23318;50.966;5.284;2022-11-15T15:58:24;13.60;99.90
37460;DHT22;23318;50.966;5.284;2022-11-15T16:00:50;13.60;99.90
37460;DHT22;23318;50.966;5.284;2022-11-15T16:03:16;13.70;99.90
37460;DHT22;23318;50.966;5.284;2022-11-15T16:05:41;13.60;99.90
37460;DHT22;23318;50.966;5.284;2022-11-15T16:08:22;13.60;99.90
37460;DHT22;23318;50.966;5.284;2022-11-15T16:10:49;13.50;99.90
37460;DHT22;23318;50.966;5.284;2022-11-15T16:13:15;13.60;99.90
37460;DHT22;23318;50.966;5.284;2022-11-15T16:15:41;13.60;99.90
37460;DHT22;23318;50.966;5.284;2022-11-15T16:18:15;13.70;99.90
37460;DHT22;23318;50.966;5.284;2022-11-15T16:20:46;13.80;99.90
37460;DHT22;23318;50.966;5.284;2022-11-15T16:23:15;13.70;99.90
37460;DHT22;23318;50.966;5.284;2022-11-15T16:28:20;13.60;99.90
37460;DHT22;23318;50.966;5.284;2022-11-15T16:30:46;13.50;99.90
37460;DHT22;23318;50.966;5.284;2022-11-15T16:33:12;13.50;99.90
37460;DHT22;23318;50.966;5.284;2022-11-15T16:35:37;13.50;99.90
37460;DHT22;23318;50.966;5.284;2022-11-15T16:38:03;13.50;99.90
37460;DHT22;23318;50.966;5.284;2022-11-15T16:40:31;13.50;99.90
37460;DHT22;23318;50.966;5.284;2022-11-15T16:42:58;13.40;99.90
37460;DHT22;23318;50.966;5.284;2022-11-15T16:45:25;13.30;99.90
37460;DHT22;23318;50.966;5.284;2022-11-15T16:47:53;13.30;99.90
37460;DHT22;23318;50.966;5.284;2022-11-15T16:50:22;13.10;99.90
37460;DHT22;23318;50.966;5.284;2022-11-15T16:52:58;13.10;99.90
37460;DHT22;23318;50.966;5.284;2022-11-15T16:55:28;12.90;99.90
37460;DHT22;23318;50.966;5.284;2022-11-15T16:57:55;12.90;99.90
37460;DHT22;23318;50.966;5.284;2022-11-15T17:00:22;12.70;99.90
37460;DHT22;23318;50.966;5.284;2022-11-15T17:02:49;12.70;99.90
37460;DHT22;23318;50.966;5.284;2022-11-15T17:05:17;12.70;99.90
37460;DHT22;23318;50.966;5.284;2022-11-15T17:07:46;12.70;99.90
37460;DHT22;23318;50.966;5.284;2022-11-15T17:10:13;12.70;99.90
37460;DHT22;23318;50.966;5.284;2022-11-15T17:12:39;12.80;99.90
37460;DHT22;23318;50.966;5.284;2022-11-15T17:15:05;12.80;99.90
37460;DHT22;23318;50.966;5.284;2022-11-15T17:17:31;12.60;99.90
37460;DHT22;23318;50.966;5.284;2022-11-15T17:19:57;12.70;99.90
37460;DHT22;23318;50.966;5.284;2022-11-15T17:22:23;12.60;99.90
37460;DHT22;23318;50.966;5.284;2022-11-15T17:24:49;12.70;99.90
37460;DHT22;23318;50.966;5.284;2022-11-15T17:27:14;12.60;99.90
37460;DHT22;23318;50.966;5.284;2022-11-15T17:29:41;12.70;99.90
37460;DHT22;23318;50.966;5.284;2022-11-15T17:32:07;12.70;99.90
37460;DHT22;23318;50.966;5.284;2022-11-15T17:34:33;12.80;99.90
37460;DHT22;23318;50.966;5.284;2022-11-15T17:36:59;12.80;99.90
37460;DHT22;23318;50.966;5.284;2022-11-15T17:39:25;12.90;99.90
37460;DHT22;23318;50.966;5.284;2022-11-15T17:41:50;12.80;99.90
37460;DHT22;23318;50.966;5.284;2022-11-15T17:44:16;12.90;99.90
37460;DHT22;23318;50.966;5.284;2022-11-15T17:46:42;12.90;99.90
37460;DHT22;23318;50.966;5.284;2022-11-15T17:49:08;12.90;99.90
37460;DHT22;23318;50.966;5.284;2022-11-15T17:51:33;13.00;99.90
37460;DHT22;23318;50.966;5.284;2022-11-15T17:53:59;13.10;99.90
37460;DHT22;23318;50.966;5.284;2022-11-15T17:56:26;13.20;99.90
37460;DHT22;23318;50.966;5.284;2022-11-15T17:58:57;13.20;99.90
37460;DHT22;23318;50.966;5.284;2022-11-15T18:01:34;13.00;99.90
37460;DHT22;23318;50.966;5.284;2022-11-15T18:04:02;13.10;99.90
37460;DHT22;23318;50.966;5.284;2022-11-15T18:06:30;13.20;99.90
37460;DHT22;23318;50.966;5.284;2022-11-15T18:08:57;13.20;99.90